sensor_id;sensor_type;location;lat;lon;timestamp;P1;durP1;ratioP1;P2;durP2;ratioP2
74551;SDS011;63025;55.472;38.432;2023-12-22T00:01:27;20.60;;;9.57;;
74551;SDS011;63025;55.472;38.432;2023-12-22T00:03:53;20.50;;;9.45;;
74551;SDS011;63025;55.472;38.432;2023-12-22T00:06:19;19.92;;;9.63;;
74551;SDS011;63025;55.472;38.432;2023-12-22T00:08:45;18.00;;;9.45;;
74551;SDS011;63025;55.472;38.432;2023-12-22T00:11:11;19.92;;;8.82;;
74551;SDS011;63025;55.472;38.432;2023-12-22T00:13:36;19.15;;;9.15;;
74551;SDS011;63025;55.472;38.432;2023-12-22T00:16:02;21.92;;;9.40;;
74551;SDS011;63025;55.472;38.432;2023-12-22T00:18:28;19.83;;;9.73;;
74551;SDS011;63025;55.472;38.432;2023-12-22T00:20:54;18.48;;;9.48;;
74551;SDS011;63025;55.472;38.432;2023-12-22T00:23:20;19.15;;;9.43;;
74551;SDS011;63025;55.472;38.432;2023-12-22T00:25:46;19.30;;;9.23;;
74551;SDS011;63025;55.472;38.432;2023-12-22T00:28:12;19.58;;;9.45;;
74551;SDS011;63025;55.472;38.432;2023-12-22T00:30:37;19.02;;;9.38;;
74551;SDS011;63025;55.472;38.432;2023-12-22T00:33:04;21.00;;;9.50;;
74551;SDS011;63025;55.472;38.432;2023-12-22T00:35:29;17.80;;;8.85;;
74551;SDS011;63025;55.472;38.432;2023-12-22T00:37:56;19.88;;;10.25;;
74551;SDS011;63025;55.472;38.432;2023-12-22T00:40:22;18.33;;;9.25;;
74551;SDS011;63025;55.472;38.432;2023-12-22T00:42:47;21.42;;;10.45;;
74551;SDS011;63025;55.472;38.432;2023-12-22T00:45:13;19.90;;;9.57;;
74551;SDS011;63025;55.472;38.432;2023-12-22T00:47:39;18.25;;;9.30;;
74551;SDS011;63025;55.472;38.432;2023-12-22T00:50:05;19.55;;;9.27;;
74551;SDS011;63025;55.472;38.432;2023-12-22T00:52:32;19.00;;;9.98;;
74551;SDS011;63025;55.472;38.432;2023-12-22T00:54:57;19.67;;;9.65;;
74551;SDS011;63025;55.472;38.432;2023-12-22T00:57:23;20.00;;;9.57;;
74551;SDS011;63025;55.472;38.432;2023-12-22T00:59:49;20.10;;;9.48;;
74551;SDS011;63025;55.472;38.432;2023-12-22T01:02:15;19.95;;;9.45;;
74551;SDS011;63025;55.472;38.432;2023-12-22T01:04:43;22.23;;;9.23;;
74551;SDS011;63025;55.472;38.432;2023-12-22T01:07:09;20.80;;;9.75;;
74551;SDS011;63025;55.472;38.432;2023-12-22T01:09:36;19.05;;;9.55;;
74551;SDS011;63025;55.472;38.432;2023-12-22T01:12:05;21.02;;;9.13;;
74551;SDS011;63025;55.472;38.432;2023-12-22T01:14:32;22.80;;;10.15;;
74551;SDS011;63025;55.472;38.432;2023-12-22T01:16:58;20.90;;;10.05;;
74551;SDS011;63025;55.472;38.432;2023-12-22T01:19:28;21.83;;;9.80;;
74551;SDS011;63025;55.472;38.432;2023-12-22T01:21:54;20.50;;;9.07;;
74551;SDS011;63025;55.472;38.432;2023-12-22T01:24:19;20.10;;;9.23;;
74551;SDS011;63025;55.472;38.432;2023-12-22T01:26:45;20.55;;;9.70;;
74551;SDS011;63025;55.472;38.432;2023-12-22T01:29:11;19.17;;;9.88;;
74551;SDS011;63025;55.472;38.432;2023-12-22T01:31:37;19.50;;;9.68;;
74551;SDS011;63025;55.472;38.432;2023-12-22T01:34:03;23.35;;;10.68;;
74551;SDS011;63025;55.472;38.432;2023-12-22T01:36:29;20.25;;;10.30;;
74551;SDS011;63025;55.472;38.432;2023-12-22T01:38:54;24.58;;;11.15;;
74551;SDS011;63025;55.472;38.432;2023-12-22T01:41:20;24.15;;;10.55;;
74551;SDS011;63025;55.472;38.432;2023-12-22T01:43:46;20.42;;;9.75;;
74551;SDS011;63025;55.472;38.432;2023-12-22T01:46:12;21.58;;;10.52;;
74551;SDS011;63025;55.472;38.432;2023-12-22T01:48:38;23.70;;;10.38;;
74551;SDS011;63025;55.472;38.432;2023-12-22T01:51:05;26.20;;;11.70;;
74551;SDS011;63025;55.472;38.432;2023-12-22T01:53:32;23.13;;;10.75;;
74551;SDS011;63025;55.472;38.432;2023-12-22T01:55:59;24.20;;;10.75;;
74551;SDS011;63025;55.472;38.432;2023-12-22T01:58:27;25.17;;;11.20;;
74551;SDS011;63025;55.472;38.432;2023-12-22T02:01:04;23.42;;;10.75;;
74551;SDS011;63025;55.472;38.432;2023-12-22T02:03:30;23.90;;;10.38;;
74551;SDS011;63025;55.472;38.432;2023-12-22T02:05:56;23.02;;;10.93;;
74551;SDS011;63025;55.472;38.432;2023-12-22T02:08:22;23.02;;;11.10;;
74551;SDS011;63025;55.472;38.432;2023-12-22T02:10:51;23.55;;;10.50;;
74551;SDS011;63025;55.472;38.432;2023-12-22T02:13:17;21.08;;;10.05;;
74551;SDS011;63025;55.472;38.432;2023-12-22T02:15:43;24.42;;;10.77;;
74551;SDS011;63025;55.472;38.432;2023-12-22T02:18:11;20.27;;;10.80;;
74551;SDS011;63025;55.472;38.432;2023-12-22T02:20:59;23.80;;;10.88;;
74551;SDS011;63025;55.472;38.432;2023-12-22T02:23:25;20.58;;;9.65;;
74551;SDS011;63025;55.472;38.432;2023-12-22T02:25:53;23.30;;;11.20;;
74551;SDS011;63025;55.472;38.432;2023-12-22T02:28:28;23.17;;;11.40;;
74551;SDS011;63025;55.472;38.432;2023-12-22T02:33:56;23.92;;;10.95;;
74551;SDS011;63025;55.472;38.432;2023-12-22T02:36:24;25.67;;;11.48;;
74551;SDS011;63025;55.472;38.432;2023-12-22T02:38:53;25.23;;;11.40;;
74551;SDS011;63025;55.472;38.432;2023-12-22T02:41:20;23.92;;;10.50;;
74551;SDS011;63025;55.472;38.432;2023-12-22T02:43:47;25.13;;;10.98;;
74551;SDS011;63025;55.472;38.432;2023-12-22T02:46:14;21.45;;;10.90;;
74551;SDS011;63025;55.472;38.432;2023-12-22T02:48:41;23.10;;;11.00;;
74551;SDS011;63025;55.472;38.432;2023-12-22T02:51:07;29.35;;;11.73;;
74551;SDS011;63025;55.472;38.432;2023-12-22T02:53:33;25.30;;;11.93;;
74551;SDS011;63025;55.472;38.432;2023-12-22T02:55:58;29.70;;;13.10;;
74551;SDS011;63025;55.472;38.432;2023-12-22T02:58:24;30.90;;;12.98;;
74551;SDS011;63025;55.472;38.432;2023-12-22T03:00:50;29.00;;;13.13;;
74551;SDS011;63025;55.472;38.432;2023-12-22T03:03:16;31.42;;;13.38;;
74551;SDS011;63025;55.472;38.432;2023-12-22T03:05:41;30.13;;;13.05;;
74551;SDS011;63025;55.472;38.432;2023-12-22T03:08:07;31.88;;;14.18;;
74551;SDS011;63025;55.472;38.432;2023-12-22T03:10:33;37.95;;;14.93;;
74551;SDS011;63025;55.472;38.432;2023-12-22T03:12:59;29.92;;;12.13;;
74551;SDS011;63025;55.472;38.432;2023-12-22T03:15:25;32.28;;;13.45;;
74551;SDS011;63025;55.472;38.432;2023-12-22T03:17:51;30.35;;;13.88;;
74551;SDS011;63025;55.472;38.432;2023-12-22T03:20:17;36.75;;;14.80;;
74551;SDS011;63025;55.472;38.432;2023-12-22T03:22:43;30.35;;;13.15;;
74551;SDS011;63025;55.472;38.432;2023-12-22T03:25:09;30.02;;;12.95;;
74551;SDS011;63025;55.472;38.432;2023-12-22T03:27:35;30.50;;;13.75;;
74551;SDS011;63025;55.472;38.432;2023-12-22T03:30:00;33.70;;;14.63;;
74551;SDS011;63025;55.472;38.432;2023-12-22T03:32:30;30.63;;;13.40;;
74551;SDS011;63025;55.472;38.432;2023-12-22T03:34:56;34.35;;;13.90;;
74551;SDS011;63025;55.472;38.432;2023-12-22T03:37:22;30.05;;;14.02;;
74551;SDS011;63025;55.472;38.432;2023-12-22T03:39:48;31.42;;;13.40;;
74551;SDS011;63025;55.472;38.432;2023-12-22T03:42:14;32.58;;;13.48;;
74551;SDS011;63025;55.472;38.432;2023-12-22T03:44:39;29.27;;;13.57;;
74551;SDS011;63025;55.472;38.432;2023-12-22T03:47:05;32.85;;;13.60;;
74551;SDS011;63025;55.472;38.432;2023-12-22T03:49:31;30.40;;;14.02;;
74551;SDS011;63025;55.472;38.432;2023-12-22T03:51:57;29.23;;;13.60;;
74551;SDS011;63025;55.472;38.432;2023-12-22T03:54:23;33.03;;;13.07;;
74551;SDS011;63025;55.472;38.432;2023-12-22T03:56:48;32.17;;;14.82;;
74551;SDS011;63025;55.472;38.432;2023-12-22T03:59:14;31.08;;;13.73;;
74551;SDS011;63025;55.472;38.432;2023-12-22T04:01:44;32.17;;;13.43;;
74551;SDS011;63025;55.472;38.432;2023-12-22T04:04:09;31.42;;;13.07;;
74551;SDS011;63025;55.472;38.432;2023-12-22T04:06:39;30.65;;;13.32;;
74551;SDS011;63025;55.472;38.432;2023-12-22T04:09:05;29.35;;;13.23;;
74551;SDS011;63025;55.472;38.432;2023-12-22T04:11:32;35.00;;;15.18;;
74551;SDS011;63025;55.472;38.432;2023-12-22T04:14:01;28.02;;;12.88;;
74551;SDS011;63025;55.472;38.432;2023-12-22T04:16:27;33.80;;;14.50;;
74551;SDS011;63025;55.472;38.432;2023-12-22T04:18:53;30.00;;;13.13;;
74551;SDS011;63025;55.472;38.432;2023-12-22T04:21:19;31.42;;;13.57;;
74551;SDS011;63025;55.472;38.432;2023-12-22T04:23:45;32.05;;;14.15;;
74551;SDS011;63025;55.472;38.432;2023-12-22T04:26:10;28.83;;;12.30;;
74551;SDS011;63025;55.472;38.432;2023-12-22T04:28:36;28.30;;;12.27;;
74551;SDS011;63025;55.472;38.432;2023-12-22T04:31:02;29.20;;;13.15;;
74551;SDS011;63025;55.472;38.432;2023-12-22T04:33:28;30.40;;;12.82;;
74551;SDS011;63025;55.472;38.432;2023-12-22T04:35:55;26.98;;;11.43;;
74551;SDS011;63025;55.472;38.432;2023-12-22T04:38:20;28.65;;;12.35;;
74551;SDS011;63025;55.472;38.432;2023-12-22T04:40:46;27.38;;;12.50;;
74551;SDS011;63025;55.472;38.432;2023-12-22T04:43:12;27.83;;;12.75;;
74551;SDS011;63025;55.472;38.432;2023-12-22T04:45:38;26.98;;;11.73;;
74551;SDS011;63025;55.472;38.432;2023-12-22T04:48:04;29.45;;;12.30;;
74551;SDS011;63025;55.472;38.432;2023-12-22T04:50:30;29.38;;;14.07;;
74551;SDS011;63025;55.472;38.432;2023-12-22T04:52:56;32.83;;;13.15;;
74551;SDS011;63025;55.472;38.432;2023-12-22T04:55:22;27.90;;;13.18;;
74551;SDS011;63025;55.472;38.432;2023-12-22T04:57:48;28.25;;;13.13;;
74551;SDS011;63025;55.472;38.432;2023-12-22T05:00:14;31.60;;;12.85;;
74551;SDS011;63025;55.472;38.432;2023-12-22T05:02:40;30.35;;;13.55;;
74551;SDS011;63025;55.472;38.432;2023-12-22T05:05:07;31.65;;;14.27;;
74551;SDS011;63025;55.472;38.432;2023-12-22T05:07:34;28.83;;;12.80;;
74551;SDS011;63025;55.472;38.432;2023-12-22T05:10:00;29.20;;;13.60;;
74551;SDS011;63025;55.472;38.432;2023-12-22T05:12:26;26.98;;;13.10;;
74551;SDS011;63025;55.472;38.432;2023-12-22T05:14:52;29.85;;;13.15;;
74551;SDS011;63025;55.472;38.432;2023-12-22T05:17:20;23.92;;;11.68;;
74551;SDS011;63025;55.472;38.432;2023-12-22T05:19:45;33.53;;;13.00;;
74551;SDS011;63025;55.472;38.432;2023-12-22T05:22:12;31.60;;;13.35;;
74551;SDS011;63025;55.472;38.432;2023-12-22T05:24:38;27.23;;;13.30;;
74551;SDS011;63025;55.472;38.432;2023-12-22T05:27:04;29.00;;;13.15;;
74551;SDS011;63025;55.472;38.432;2023-12-22T05:29:30;28.50;;;13.75;;
74551;SDS011;63025;55.472;38.432;2023-12-22T05:31:56;28.52;;;13.68;;
74551;SDS011;63025;55.472;38.432;2023-12-22T05:34:21;30.38;;;13.43;;
74551;SDS011;63025;55.472;38.432;2023-12-22T05:36:47;26.98;;;13.32;;
74551;SDS011;63025;55.472;38.432;2023-12-22T05:39:13;26.98;;;12.85;;
74551;SDS011;63025;55.472;38.432;2023-12-22T05:41:39;28.60;;;13.02;;
74551;SDS011;63025;55.472;38.432;2023-12-22T05:44:05;29.40;;;13.35;;
74551;SDS011;63025;55.472;38.432;2023-12-22T05:46:35;28.20;;;13.30;;
74551;SDS011;63025;55.472;38.432;2023-12-22T05:49:04;27.43;;;13.70;;
74551;SDS011;63025;55.472;38.432;2023-12-22T05:51:35;25.83;;;12.80;;
74551;SDS011;63025;55.472;38.432;2023-12-22T05:54:02;27.63;;;13.45;;
74551;SDS011;63025;55.472;38.432;2023-12-22T05:56:28;28.30;;;12.48;;
74551;SDS011;63025;55.472;38.432;2023-12-22T05:58:55;27.15;;;13.25;;
74551;SDS011;63025;55.472;38.432;2023-12-22T06:01:20;28.05;;;12.85;;
74551;SDS011;63025;55.472;38.432;2023-12-22T06:03:46;28.15;;;13.05;;
74551;SDS011;63025;55.472;38.432;2023-12-22T06:06:13;26.75;;;12.65;;
74551;SDS011;63025;55.472;38.432;2023-12-22T06:08:40;25.52;;;12.60;;
74551;SDS011;63025;55.472;38.432;2023-12-22T06:11:05;25.38;;;12.88;;
74551;SDS011;63025;55.472;38.432;2023-12-22T06:13:31;24.38;;;11.95;;
74551;SDS011;63025;55.472;38.432;2023-12-22T06:15:57;26.65;;;10.85;;
74551;SDS011;63025;55.472;38.432;2023-12-22T06:18:23;25.02;;;12.32;;
74551;SDS011;63025;55.472;38.432;2023-12-22T06:20:49;22.10;;;10.27;;
74551;SDS011;63025;55.472;38.432;2023-12-22T06:23:16;23.77;;;11.15;;
74551;SDS011;63025;55.472;38.432;2023-12-22T06:25:42;23.80;;;11.15;;
74551;SDS011;63025;55.472;38.432;2023-12-22T06:28:08;22.13;;;11.05;;
74551;SDS011;63025;55.472;38.432;2023-12-22T06:30:34;22.38;;;11.02;;
74551;SDS011;63025;55.472;38.432;2023-12-22T06:33:01;21.83;;;10.50;;
74551;SDS011;63025;55.472;38.432;2023-12-22T06:35:27;19.77;;;10.13;;
74551;SDS011;63025;55.472;38.432;2023-12-22T06:37:53;22.00;;;10.43;;
74551;SDS011;63025;55.472;38.432;2023-12-22T06:40:19;22.90;;;11.20;;
74551;SDS011;63025;55.472;38.432;2023-12-22T06:42:46;19.25;;;10.57;;
74551;SDS011;63025;55.472;38.432;2023-12-22T06:45:11;20.38;;;9.88;;
74551;SDS011;63025;55.472;38.432;2023-12-22T06:47:37;22.75;;;11.10;;
74551;SDS011;63025;55.472;38.432;2023-12-22T06:50:03;22.00;;;10.57;;
74551;SDS011;63025;55.472;38.432;2023-12-22T06:52:31;20.27;;;10.85;;
74551;SDS011;63025;55.472;38.432;2023-12-22T06:54:56;20.48;;;10.20;;
74551;SDS011;63025;55.472;38.432;2023-12-22T06:57:22;18.98;;;9.48;;
74551;SDS011;63025;55.472;38.432;2023-12-22T06:59:48;17.13;;;8.82;;
74551;SDS011;63025;55.472;38.432;2023-12-22T07:02:15;17.63;;;9.43;;
74551;SDS011;63025;55.472;38.432;2023-12-22T07:05:02;19.30;;;9.93;;
74551;SDS011;63025;55.472;38.432;2023-12-22T07:07:48;22.30;;;9.93;;
74551;SDS011;63025;55.472;38.432;2023-12-22T07:10:16;19.17;;;9.63;;
74551;SDS011;63025;55.472;38.432;2023-12-22T07:12:44;19.27;;;9.52;;
74551;SDS011;63025;55.472;38.432;2023-12-22T07:15:10;20.60;;;9.88;;
74551;SDS011;63025;55.472;38.432;2023-12-22T07:17:36;19.02;;;9.02;;
74551;SDS011;63025;55.472;38.432;2023-12-22T07:20:02;15.25;;;8.20;;
74551;SDS011;63025;55.472;38.432;2023-12-22T07:22:30;18.90;;;9.18;;
74551;SDS011;63025;55.472;38.432;2023-12-22T07:24:57;14.93;;;8.15;;
74551;SDS011;63025;55.472;38.432;2023-12-22T07:27:22;16.23;;;9.00;;
74551;SDS011;63025;55.472;38.432;2023-12-22T07:29:49;14.32;;;7.60;;
74551;SDS011;63025;55.472;38.432;2023-12-22T07:32:15;13.98;;;7.88;;
74551;SDS011;63025;55.472;38.432;2023-12-22T07:34:41;16.38;;;8.80;;
74551;SDS011;63025;55.472;38.432;2023-12-22T07:37:07;15.35;;;8.82;;
74551;SDS011;63025;55.472;38.432;2023-12-22T07:39:33;15.90;;;8.25;;
74551;SDS011;63025;55.472;38.432;2023-12-22T07:41:59;15.15;;;8.35;;
74551;SDS011;63025;55.472;38.432;2023-12-22T07:44:25;16.88;;;9.00;;
74551;SDS011;63025;55.472;38.432;2023-12-22T07:46:57;13.60;;;7.68;;
74551;SDS011;63025;55.472;38.432;2023-12-22T07:49:24;16.63;;;7.70;;
74551;SDS011;63025;55.472;38.432;2023-12-22T07:51:51;14.32;;;7.85;;
74551;SDS011;63025;55.472;38.432;2023-12-22T07:54:17;15.07;;;7.75;;
74551;SDS011;63025;55.472;38.432;2023-12-22T07:56:43;14.27;;;7.50;;
74551;SDS011;63025;55.472;38.432;2023-12-22T07:59:09;12.57;;;7.25;;
74551;SDS011;63025;55.472;38.432;2023-12-22T08:01:35;14.20;;;7.68;;
74551;SDS011;63025;55.472;38.432;2023-12-22T08:04:01;14.32;;;7.32;;
74551;SDS011;63025;55.472;38.432;2023-12-22T08:06:27;14.02;;;6.68;;
74551;SDS011;63025;55.472;38.432;2023-12-22T08:08:53;15.18;;;7.00;;
74551;SDS011;63025;55.472;38.432;2023-12-22T08:11:20;13.82;;;7.70;;
74551;SDS011;63025;55.472;38.432;2023-12-22T08:13:47;12.23;;;7.15;;
74551;SDS011;63025;55.472;38.432;2023-12-22T08:16:13;14.43;;;7.53;;
74551;SDS011;63025;55.472;38.432;2023-12-22T08:18:38;15.38;;;7.32;;
74551;SDS011;63025;55.472;38.432;2023-12-22T08:21:04;15.32;;;7.07;;
74551;SDS011;63025;55.472;38.432;2023-12-22T08:23:31;13.60;;;7.10;;
74551;SDS011;63025;55.472;38.432;2023-12-22T08:25:57;12.90;;;6.45;;
74551;SDS011;63025;55.472;38.432;2023-12-22T08:28:23;14.63;;;7.80;;
74551;SDS011;63025;55.472;38.432;2023-12-22T08:30:49;15.65;;;6.65;;
74551;SDS011;63025;55.472;38.432;2023-12-22T08:33:15;11.90;;;6.63;;
74551;SDS011;63025;55.472;38.432;2023-12-22T08:35:41;12.68;;;6.88;;
74551;SDS011;63025;55.472;38.432;2023-12-22T08:38:07;14.55;;;7.63;;
74551;SDS011;63025;55.472;38.432;2023-12-22T08:40:33;16.17;;;7.63;;
74551;SDS011;63025;55.472;38.432;2023-12-22T08:43:01;12.82;;;6.57;;
74551;SDS011;63025;55.472;38.432;2023-12-22T08:45:27;13.88;;;7.47;;
74551;SDS011;63025;55.472;38.432;2023-12-22T08:47:55;13.65;;;7.30;;
74551;SDS011;63025;55.472;38.432;2023-12-22T08:50:21;14.13;;;7.60;;
74551;SDS011;63025;55.472;38.432;2023-12-22T08:52:47;12.27;;;6.55;;
74551;SDS011;63025;55.472;38.432;2023-12-22T08:55:13;13.20;;;7.07;;
74551;SDS011;63025;55.472;38.432;2023-12-22T08:57:39;15.10;;;7.80;;
74551;SDS011;63025;55.472;38.432;2023-12-22T09:00:05;13.63;;;7.13;;
74551;SDS011;63025;55.472;38.432;2023-12-22T09:02:32;14.77;;;7.05;;
74551;SDS011;63025;55.472;38.432;2023-12-22T09:04:58;12.68;;;6.82;;
74551;SDS011;63025;55.472;38.432;2023-12-22T09:07:23;13.07;;;6.85;;
74551;SDS011;63025;55.472;38.432;2023-12-22T09:09:50;14.95;;;6.88;;
74551;SDS011;63025;55.472;38.432;2023-12-22T09:12:16;12.57;;;6.85;;
74551;SDS011;63025;55.472;38.432;2023-12-22T09:14:42;12.55;;;6.72;;
74551;SDS011;63025;55.472;38.432;2023-12-22T09:17:08;13.13;;;7.10;;
74551;SDS011;63025;55.472;38.432;2023-12-22T09:19:33;12.43;;;6.60;;
74551;SDS011;63025;55.472;38.432;2023-12-22T09:21:59;12.43;;;6.20;;
74551;SDS011;63025;55.472;38.432;2023-12-22T09:24:25;11.93;;;7.25;;
74551;SDS011;63025;55.472;38.432;2023-12-22T09:26:51;14.50;;;6.60;;
74551;SDS011;63025;55.472;38.432;2023-12-22T09:29:17;10.90;;;6.15;;
74551;SDS011;63025;55.472;38.432;2023-12-22T09:31:43;12.82;;;6.10;;
74551;SDS011;63025;55.472;38.432;2023-12-22T09:34:09;14.18;;;6.22;;
74551;SDS011;63025;55.472;38.432;2023-12-22T09:36:35;12.20;;;5.90;;
74551;SDS011;63025;55.472;38.432;2023-12-22T09:39:01;9.70;;;5.32;;
74551;SDS011;63025;55.472;38.432;2023-12-22T09:41:27;8.80;;;5.32;;
74551;SDS011;63025;55.472;38.432;2023-12-22T09:43:53;11.50;;;5.72;;
74551;SDS011;63025;55.472;38.432;2023-12-22T09:46:22;11.80;;;5.90;;
74551;SDS011;63025;55.472;38.432;2023-12-22T09:48:49;10.35;;;5.78;;
74551;SDS011;63025;55.472;38.432;2023-12-22T09:51:17;13.00;;;6.70;;
74551;SDS011;63025;55.472;38.432;2023-12-22T09:53:44;13.18;;;7.05;;
74551;SDS011;63025;55.472;38.432;2023-12-22T09:56:11;11.98;;;6.65;;
74551;SDS011;63025;55.472;38.432;2023-12-22T09:58:39;14.23;;;6.63;;
74551;SDS011;63025;55.472;38.432;2023-12-22T10:01:06;9.95;;;5.80;;
74551;SDS011;63025;55.472;38.432;2023-12-22T10:03:34;13.18;;;6.00;;
74551;SDS011;63025;55.472;38.432;2023-12-22T10:06:02;10.73;;;6.13;;
74551;SDS011;63025;55.472;38.432;2023-12-22T10:08:28;10.50;;;5.70;;
74551;SDS011;63025;55.472;38.432;2023-12-22T10:10:56;10.40;;;5.38;;
74551;SDS011;63025;55.472;38.432;2023-12-22T10:13:22;11.85;;;6.13;;
74551;SDS011;63025;55.472;38.432;2023-12-22T10:15:48;12.25;;;6.53;;
74551;SDS011;63025;55.472;38.432;2023-12-22T10:18:14;11.30;;;5.75;;
74551;SDS011;63025;55.472;38.432;2023-12-22T10:20:41;11.23;;;6.40;;
74551;SDS011;63025;55.472;38.432;2023-12-22T10:23:08;11.48;;;6.90;;
74551;SDS011;63025;55.472;38.432;2023-12-22T10:25:34;12.88;;;6.10;;
74551;SDS011;63025;55.472;38.432;2023-12-22T10:28:00;12.85;;;6.93;;
74551;SDS011;63025;55.472;38.432;2023-12-22T10:30:27;13.85;;;6.60;;
74551;SDS011;63025;55.472;38.432;2023-12-22T10:32:54;11.68;;;6.03;;
74551;SDS011;63025;55.472;38.432;2023-12-22T10:35:20;12.48;;;5.82;;
74551;SDS011;63025;55.472;38.432;2023-12-22T10:37:46;15.40;;;6.07;;
74551;SDS011;63025;55.472;38.432;2023-12-22T10:40:13;11.32;;;6.30;;
74551;SDS011;63025;55.472;38.432;2023-12-22T10:42:40;15.65;;;7.57;;
74551;SDS011;63025;55.472;38.432;2023-12-22T10:45:06;14.80;;;6.97;;
74551;SDS011;63025;55.472;38.432;2023-12-22T10:47:33;14.65;;;7.22;;
74551;SDS011;63025;55.472;38.432;2023-12-22T10:50:05;15.80;;;7.20;;
74551;SDS011;63025;55.472;38.432;2023-12-22T10:52:32;13.75;;;6.68;;
74551;SDS011;63025;55.472;38.432;2023-12-22T10:54:59;15.80;;;7.95;;
74551;SDS011;63025;55.472;38.432;2023-12-22T10:57:26;15.73;;;6.93;;
74551;SDS011;63025;55.472;38.432;2023-12-22T10:59:53;15.55;;;7.95;;
74551;SDS011;63025;55.472;38.432;2023-12-22T11:02:22;17.20;;;7.85;;
74551;SDS011;63025;55.472;38.432;2023-12-22T11:05:11;15.45;;;6.88;;
74551;SDS011;63025;55.472;38.432;2023-12-22T11:07:37;16.73;;;7.78;;
74551;SDS011;63025;55.472;38.432;2023-12-22T11:10:07;14.98;;;7.53;;
74551;SDS011;63025;55.472;38.432;2023-12-22T11:12:37;16.83;;;7.85;;
74551;SDS011;63025;55.472;38.432;2023-12-22T11:15:04;17.38;;;8.30;;
74551;SDS011;63025;55.472;38.432;2023-12-22T11:17:33;17.40;;;8.63;;
74551;SDS011;63025;55.472;38.432;2023-12-22T11:20:01;13.00;;;6.78;;
74551;SDS011;63025;55.472;38.432;2023-12-22T11:22:30;13.73;;;6.63;;
74551;SDS011;63025;55.472;38.432;2023-12-22T11:24:58;13.95;;;7.28;;
74551;SDS011;63025;55.472;38.432;2023-12-22T11:27:31;16.60;;;6.53;;
74551;SDS011;63025;55.472;38.432;2023-12-22T11:29:59;14.00;;;6.22;;
74551;SDS011;63025;55.472;38.432;2023-12-22T11:32:27;15.13;;;6.75;;
74551;SDS011;63025;55.472;38.432;2023-12-22T11:34:55;15.68;;;6.85;;
74551;SDS011;63025;55.472;38.432;2023-12-22T11:40:04;12.65;;;5.43;;
74551;SDS011;63025;55.472;38.432;2023-12-22T11:42:31;13.40;;;7.15;;
74551;SDS011;63025;55.472;38.432;2023-12-22T11:45:04;16.58;;;7.63;;
74551;SDS011;63025;55.472;38.432;2023-12-22T11:47:31;15.48;;;7.32;;
74551;SDS011;63025;55.472;38.432;2023-12-22T11:49:59;16.83;;;8.15;;
74551;SDS011;63025;55.472;38.432;2023-12-22T11:52:25;16.20;;;7.53;;
74551;SDS011;63025;55.472;38.432;2023-12-22T11:54:54;14.80;;;7.40;;
74551;SDS011;63025;55.472;38.432;2023-12-22T11:57:30;17.17;;;7.60;;
74551;SDS011;63025;55.472;38.432;2023-12-22T11:59:57;16.75;;;8.25;;
74551;SDS011;63025;55.472;38.432;2023-12-22T12:02:28;17.38;;;7.95;;
74551;SDS011;63025;55.472;38.432;2023-12-22T12:04:56;18.30;;;8.70;;
74551;SDS011;63025;55.472;38.432;2023-12-22T12:07:37;20.45;;;8.27;;
74551;SDS011;63025;55.472;38.432;2023-12-22T12:10:13;16.95;;;8.13;;
74551;SDS011;63025;55.472;38.432;2023-12-22T12:13:06;16.02;;;8.40;;
74551;SDS011;63025;55.472;38.432;2023-12-22T12:15:33;17.45;;;9.07;;
74551;SDS011;63025;55.472;38.432;2023-12-22T12:18:00;19.77;;;9.20;;
74551;SDS011;63025;55.472;38.432;2023-12-22T12:20:26;17.63;;;8.80;;
74551;SDS011;63025;55.472;38.432;2023-12-22T12:22:52;20.60;;;9.45;;
74551;SDS011;63025;55.472;38.432;2023-12-22T12:25:21;24.45;;;11.00;;
74551;SDS011;63025;55.472;38.432;2023-12-22T12:27:51;30.30;;;13.50;;
74551;SDS011;63025;55.472;38.432;2023-12-22T12:30:30;28.70;;;14.07;;
74551;SDS011;63025;55.472;38.432;2023-12-22T12:32:58;37.72;;;15.70;;
74551;SDS011;63025;55.472;38.432;2023-12-22T12:35:28;33.33;;;15.02;;
74551;SDS011;63025;55.472;38.432;2023-12-22T12:37:55;38.08;;;15.82;;
74551;SDS011;63025;55.472;38.432;2023-12-22T12:40:20;33.47;;;15.07;;
74551;SDS011;63025;55.472;38.432;2023-12-22T12:42:50;34.30;;;15.07;;
74551;SDS011;63025;55.472;38.432;2023-12-22T12:45:21;33.50;;;14.57;;
74551;SDS011;63025;55.472;38.432;2023-12-22T12:47:58;30.35;;;14.20;;
74551;SDS011;63025;55.472;38.432;2023-12-22T12:50:25;25.88;;;12.13;;
74551;SDS011;63025;55.472;38.432;2023-12-22T12:52:52;29.83;;;13.95;;
74551;SDS011;63025;55.472;38.432;2023-12-22T12:55:22;26.63;;;11.38;;
74551;SDS011;63025;55.472;38.432;2023-12-22T12:57:50;25.63;;;11.95;;
74551;SDS011;63025;55.472;38.432;2023-12-22T13:00:26;24.85;;;11.05;;
74551;SDS011;63025;55.472;38.432;2023-12-22T13:02:54;24.90;;;10.25;;
74551;SDS011;63025;55.472;38.432;2023-12-22T13:05:24;25.80;;;11.30;;
74551;SDS011;63025;55.472;38.432;2023-12-22T13:07:51;25.98;;;10.88;;
74551;SDS011;63025;55.472;38.432;2023-12-22T13:10:24;24.60;;;10.95;;
74551;SDS011;63025;55.472;38.432;2023-12-22T13:12:51;24.85;;;9.77;;
74551;SDS011;63025;55.472;38.432;2023-12-22T13:15:20;26.38;;;11.95;;
74551;SDS011;63025;55.472;38.432;2023-12-22T13:17:49;22.73;;;10.48;;
74551;SDS011;63025;55.472;38.432;2023-12-22T13:20:15;23.52;;;11.50;;
74551;SDS011;63025;55.472;38.432;2023-12-22T13:22:41;28.23;;;13.48;;
74551;SDS011;63025;55.472;38.432;2023-12-22T13:25:07;29.80;;;13.55;;
74551;SDS011;63025;55.472;38.432;2023-12-22T13:27:46;33.83;;;15.85;;
74551;SDS011;63025;55.472;38.432;2023-12-22T13:30:13;29.88;;;13.82;;
74551;SDS011;63025;55.472;38.432;2023-12-22T13:32:40;32.20;;;14.82;;
74551;SDS011;63025;55.472;38.432;2023-12-22T13:35:06;32.78;;;15.38;;
74551;SDS011;63025;55.472;38.432;2023-12-22T13:37:33;36.38;;;15.75;;
74551;SDS011;63025;55.472;38.432;2023-12-22T13:39:58;41.40;;;17.48;;
74551;SDS011;63025;55.472;38.432;2023-12-22T13:42:25;46.22;;;19.40;;
74551;SDS011;63025;55.472;38.432;2023-12-22T13:44:51;43.70;;;16.67;;
74551;SDS011;63025;55.472;38.432;2023-12-22T13:47:18;38.50;;;17.23;;
74551;SDS011;63025;55.472;38.432;2023-12-22T13:49:45;41.72;;;18.02;;
74551;SDS011;63025;55.472;38.432;2023-12-22T13:52:24;42.50;;;17.17;;
74551;SDS011;63025;55.472;38.432;2023-12-22T13:55:09;39.45;;;16.00;;
74551;SDS011;63025;55.472;38.432;2023-12-22T13:57:39;32.10;;;14.77;;
74551;SDS011;63025;55.472;38.432;2023-12-22T14:00:26;32.33;;;15.20;;
74551;SDS011;63025;55.472;38.432;2023-12-22T14:02:52;32.97;;;14.15;;
74551;SDS011;63025;55.472;38.432;2023-12-22T14:05:18;31.17;;;14.43;;
74551;SDS011;63025;55.472;38.432;2023-12-22T14:07:44;28.77;;;13.32;;
74551;SDS011;63025;55.472;38.432;2023-12-22T14:10:11;22.98;;;9.93;;
74551;SDS011;63025;55.472;38.432;2023-12-22T14:12:37;26.70;;;12.15;;
74551;SDS011;63025;55.472;38.432;2023-12-22T14:15:07;27.00;;;12.88;;
74551;SDS011;63025;55.472;38.432;2023-12-22T14:17:35;25.60;;;12.30;;
74551;SDS011;63025;55.472;38.432;2023-12-22T14:20:01;24.70;;;11.43;;
74551;SDS011;63025;55.472;38.432;2023-12-22T14:22:29;28.88;;;12.88;;